createdAt,value
2018-11-29T00:00:30.810Z,-2.10
2018-11-29T00:02:58.485Z,-2.10
2018-11-29T00:05:26.177Z,-2.20
2018-11-29T00:07:53.942Z,-2.10
2018-11-29T00:10:21.635Z,-2.10
2018-11-29T00:12:49.262Z,-2.10
2018-11-29T00:15:16.980Z,-2.20
2018-11-29T00:17:44.669Z,-2.20
2018-11-29T00:20:17.736Z,-2.20
2018-11-29T00:22:46.713Z,-2.20
2018-11-29T00:25:16.345Z,-2.30
2018-11-29T00:27:44.450Z,-2.30
2018-11-29T00:30:20.254Z,-2.30
2018-11-29T00:32:48.254Z,-2.40
2018-11-29T00:35:16.714Z,-2.30
2018-11-29T00:37:44.466Z,-2.40
2018-11-29T00:40:19.097Z,-2.50
2018-11-29T00:42:46.810Z,-2.50
2018-11-29T00:45:18.669Z,-2.40
2018-11-29T00:47:47.159Z,-2.40
2018-11-29T00:50:15.913Z,-2.40
2018-11-29T00:52:44.956Z,-2.30
2018-11-29T00:55:16.147Z,-2.30
2018-11-29T00:57:43.795Z,-2.20
2018-11-29T01:00:17.772Z,-2.00
2018-11-29T01:02:45.483Z,-1.80
2018-11-29T01:05:13.138Z,-1.70
2018-11-29T01:07:40.770Z,-1.70
2018-11-29T01:10:10.824Z,-1.70
2018-11-29T01:12:38.593Z,-1.60
2018-11-29T01:15:10.173Z,-1.50
2018-11-29T01:17:37.865Z,-1.40
2018-11-29T01:20:08.838Z,-1.20
2018-11-29T01:22:36.536Z,-1.10
2018-11-29T01:25:05.476Z,-1.00
2018-11-29T01:27:33.139Z,-0.90
2018-11-29T01:30:00.808Z,-0.90
2018-11-29T01:32:28.475Z,-0.80
2018-11-29T01:34:56.112Z,-0.80
2018-11-29T01:37:23.778Z,-0.70
2018-11-29T01:39:51.398Z,-0.70
2018-11-29T01:42:19.018Z,-0.60
2018-11-29T01:44:46.639Z,-0.60
2018-11-29T01:47:14.255Z,-0.50
2018-11-29T01:49:41.949Z,-0.50
2018-11-29T01:52:09.617Z,-0.40
2018-11-29T01:54:37.282Z,-0.40
2018-11-29T01:57:05.350Z,-0.40
2018-11-29T01:59:33.009Z,-0.40
2018-11-29T02:02:00.737Z,-0.30
2018-11-29T02:04:28.359Z,-0.30
2018-11-29T02:06:55.989Z,-0.30
2018-11-29T02:09:23.621Z,-0.30
2018-11-29T02:11:51.380Z,-0.30
2018-11-29T02:14:19.132Z,-0.30
2018-11-29T02:16:47.902Z,-0.30
2018-11-29T02:19:15.600Z,-0.30
2018-11-29T02:21:43.241Z,-0.20
2018-11-29T02:24:10.886Z,-0.30
2018-11-29T02:26:38.574Z,-0.30
2018-11-29T02:29:06.213Z,-0.20
2018-11-29T02:31:35.744Z,-0.20
2018-11-29T02:34:04.656Z,-0.20
2018-11-29T02:36:32.334Z,-0.10
2018-11-29T02:39:00.175Z,-0.10
2018-11-29T02:41:27.812Z,-0.10
2018-11-29T02:43:55.496Z,-0.10
2018-11-29T02:46:23.169Z,-0.10
2018-11-29T02:48:50.826Z,0.00
2018-11-29T02:51:18.515Z,0.00
2018-11-29T02:53:46.141Z,-0.10
2018-11-29T02:56:13.785Z,0.00
2018-11-29T02:58:41.413Z,0.00
2018-11-29T03:01:09.133Z,0.00
2018-11-29T03:03:36.857Z,-0.10
2018-11-29T03:06:05.049Z,0.00
2018-11-29T03:08:32.732Z,-0.10
2018-11-29T03:11:00.417Z,0.00
2018-11-29T03:13:28.094Z,-0.10
2018-11-29T03:15:55.754Z,-0.20
2018-11-29T03:18:23.465Z,-0.10
2018-11-29T03:20:51.109Z,-0.10
2018-11-29T03:23:18.774Z,-0.10
2018-11-29T03:25:46.416Z,-0.20
2018-11-29T03:28:14.129Z,-0.20
2018-11-29T03:30:41.771Z,-0.20
2018-11-29T03:33:09.618Z,-0.10
2018-11-29T03:35:37.276Z,-0.10
2018-11-29T03:38:05.136Z,-0.20
2018-11-29T03:40:32.828Z,-0.20
2018-11-29T03:43:01.080Z,-0.10
2018-11-29T03:45:28.696Z,-0.20
2018-11-29T03:47:56.393Z,-0.20
2018-11-29T03:50:24.091Z,-0.20
2018-11-29T03:52:51.774Z,-0.30
2018-11-29T03:55:19.434Z,-0.30
2018-11-29T03:57:47.145Z,-0.20
2018-11-29T04:00:16.802Z,-0.30
2018-11-29T04:02:48.077Z,-0.20
2018-11-29T04:05:15.837Z,-0.20
2018-11-29T04:07:43.554Z,-0.30
2018-11-29T04:10:13.633Z,-0.30
2018-11-29T04:12:41.417Z,-0.40
2018-11-29T04:15:10.812Z,-0.30
2018-11-29T04:17:40.879Z,-0.40
2018-11-29T04:20:12.185Z,-0.40
2018-11-29T04:22:39.818Z,-0.40
2018-11-29T04:25:09.866Z,-0.40
2018-11-29T04:27:37.718Z,-0.40
2018-11-29T04:30:21.218Z,-0.40
2018-11-29T04:32:48.903Z,-0.40
2018-11-29T04:35:16.582Z,-0.50
2018-11-29T04:37:44.280Z,-0.50
2018-11-29T04:40:14.626Z,-0.50
2018-11-29T04:42:42.326Z,-0.60
2018-11-29T04:45:12.465Z,-0.50
2018-11-29T04:47:40.180Z,-0.60
2018-11-29T04:50:07.958Z,-0.60
2018-11-29T04:52:35.624Z,-0.60
2018-11-29T04:55:03.376Z,-0.60
2018-11-29T04:57:31.087Z,-0.50
2018-11-29T04:59:58.748Z,-0.50
2018-11-29T05:02:26.434Z,-0.60
2018-11-29T05:04:54.227Z,-0.60
2018-11-29T05:07:21.876Z,-0.60
2018-11-29T05:09:49.502Z,-0.60
2018-11-29T05:12:17.171Z,-0.70
2018-11-29T05:14:44.954Z,-0.70
2018-11-29T05:17:12.643Z,-0.60
2018-11-29T05:19:40.424Z,-0.70
2018-11-29T05:22:08.094Z,-0.70
2018-11-29T05:24:35.791Z,-0.80
2018-11-29T05:27:04.227Z,-0.80
2018-11-29T05:29:31.926Z,-0.80
2018-11-29T05:31:59.593Z,-0.80
2018-11-29T05:34:27.318Z,-0.80
2018-11-29T05:36:55.048Z,-0.80
2018-11-29T05:39:22.833Z,-0.80
2018-11-29T05:41:50.491Z,-0.80
2018-11-29T05:44:18.166Z,-0.80
2018-11-29T05:46:45.944Z,-0.80
2018-11-29T05:49:13.649Z,-0.90
2018-11-29T05:51:41.301Z,-0.90
2018-11-29T05:54:09.030Z,-0.90
2018-11-29T05:56:36.729Z,-0.90
2018-11-29T05:59:04.867Z,-0.90
2018-11-29T06:01:34.588Z,-0.90
2018-11-29T06:04:02.380Z,-0.90
2018-11-29T06:06:30.275Z,-0.90
2018-11-29T06:08:58.897Z,-0.90
2018-11-29T06:11:26.545Z,-1.00
2018-11-29T06:13:54.217Z,-0.90
2018-11-29T06:16:21.960Z,-1.10
2018-11-29T06:18:49.691Z,-1.00
2018-11-29T06:21:17.344Z,-1.00
2018-11-29T06:23:45.745Z,-1.00
2018-11-29T06:26:14.379Z,-1.00
2018-11-29T06:28:42.254Z,-1.00
2018-11-29T06:31:10.080Z,-1.10
2018-11-29T06:33:37.847Z,-1.00
2018-11-29T06:36:05.620Z,-1.10
2018-11-29T06:38:33.611Z,-1.10
2018-11-29T06:41:01.433Z,-1.10
2018-11-29T06:43:29.299Z,-1.10
2018-11-29T06:45:57.192Z,-1.10
2018-11-29T06:48:24.926Z,-1.20
2018-11-29T06:50:52.663Z,-1.10
2018-11-29T06:53:26.041Z,-1.10
2018-11-29T06:55:54.055Z,-1.10
2018-11-29T06:58:21.710Z,-1.10
2018-11-29T07:00:49.490Z,-1.00
2018-11-29T07:03:17.115Z,-1.00
2018-11-29T07:05:44.801Z,-1.00
2018-11-29T07:08:12.453Z,-1.10
2018-11-29T07:10:40.169Z,-1.10
2018-11-29T07:13:07.863Z,-1.00
2018-11-29T07:15:35.510Z,-1.00
2018-11-29T07:18:03.287Z,-1.00
2018-11-29T07:20:30.894Z,-1.00
2018-11-29T07:22:58.618Z,-0.90
2018-11-29T07:25:26.298Z,-0.90
2018-11-29T07:27:54.014Z,-0.80
2018-11-29T07:30:21.662Z,-0.80
2018-11-29T07:32:49.322Z,-0.80
2018-11-29T07:35:17.068Z,-0.80
2018-11-29T07:37:44.739Z,-0.70
2018-11-29T07:40:15.801Z,-0.70
2018-11-29T07:42:44.434Z,-0.70
2018-11-29T07:45:17.663Z,-0.60
2018-11-29T07:47:45.666Z,-0.50
2018-11-29T07:50:16.134Z,-0.50
2018-11-29T07:52:43.838Z,-0.40
2018-11-29T07:55:15.012Z,-0.40
2018-11-29T07:57:43.289Z,-0.40
2018-11-29T08:00:14.531Z,-0.20
2018-11-29T08:02:42.190Z,-0.20
2018-11-29T08:05:12.418Z,0.00
2018-11-29T08:07:47.589Z,0.00
2018-11-29T08:10:15.745Z,0.00
2018-11-29T08:12:43.361Z,0.00
2018-11-29T08:15:14.700Z,0.10
2018-11-29T08:17:42.343Z,0.20
2018-11-29T08:20:13.872Z,0.20
2018-11-29T08:22:41.529Z,0.40
2018-11-29T08:25:10.202Z,0.60
2018-11-29T08:27:37.892Z,0.70
2018-11-29T08:30:09.180Z,0.90
2018-11-29T08:32:36.903Z,0.90
2018-11-29T08:35:06.536Z,1.00
2018-11-29T08:37:34.221Z,1.00
2018-11-29T08:40:01.912Z,1.10
2018-11-29T08:42:29.563Z,1.00
2018-11-29T08:44:57.185Z,1.20
2018-11-29T08:47:25.586Z,1.30
2018-11-29T08:49:53.250Z,1.30
2018-11-29T08:52:20.937Z,1.50
2018-11-29T08:54:48.674Z,1.50
2018-11-29T08:57:16.396Z,1.20
2018-11-29T08:59:45.296Z,1.30
2018-11-29T09:02:18.105Z,1.40
2018-11-29T09:04:45.802Z,1.40
2018-11-29T09:07:13.548Z,1.30
2018-11-29T09:09:41.230Z,1.30
2018-11-29T09:12:09.205Z,1.40
2018-11-29T09:14:36.844Z,1.30
2018-11-29T09:17:05.527Z,1.40
2018-11-29T09:19:37.397Z,1.40
2018-11-29T09:22:00.873Z,1.50
2018-11-29T09:24:28.489Z,1.60
2018-11-29T09:26:56.215Z,1.40
2018-11-29T09:29:23.826Z,1.50
2018-11-29T09:31:51.501Z,1.60
2018-11-29T09:34:19.108Z,1.70
2018-11-29T09:36:46.778Z,1.70
2018-11-29T09:39:14.423Z,1.80
2018-11-29T09:41:42.695Z,1.80
2018-11-29T09:44:10.322Z,1.80
2018-11-29T09:46:38.109Z,1.80
2018-11-29T09:49:05.823Z,1.90
2018-11-29T09:51:33.381Z,2.00
2018-11-29T09:54:01.054Z,2.00
2018-11-29T09:56:28.670Z,2.10
2018-11-29T09:58:56.318Z,2.10
2018-11-29T10:01:23.926Z,2.20
2018-11-29T10:03:51.605Z,2.30
2018-11-29T10:06:19.281Z,2.30
2018-11-29T10:08:46.924Z,2.40
2018-11-29T10:11:14.561Z,2.30
2018-11-29T10:13:46.133Z,2.40
2018-11-29T10:16:09.918Z,2.50
2018-11-29T10:18:37.602Z,2.60
2018-11-29T10:21:06.285Z,2.70
2018-11-29T10:23:33.975Z,2.70
2018-11-29T10:26:01.659Z,2.80
2018-11-29T10:28:29.891Z,2.80
2018-11-29T10:30:59.957Z,2.70
2018-11-29T10:33:27.650Z,2.90
2018-11-29T10:35:59.015Z,2.80
2018-11-29T10:38:23.146Z,3.00
2018-11-29T10:40:51.713Z,3.20
2018-11-29T10:43:19.391Z,3.30
2018-11-29T10:45:47.052Z,3.40
2018-11-29T10:48:20.714Z,3.20
2018-11-29T10:50:48.402Z,3.50
2018-11-29T10:53:16.111Z,3.60
2018-11-29T10:55:43.810Z,3.90
2018-11-29T10:58:11.568Z,3.80
2018-11-29T11:00:45.872Z,3.90
2018-11-29T11:03:19.500Z,4.00
2018-11-29T11:05:50.437Z,4.40
2018-11-29T11:08:18.884Z,4.70
2018-11-29T11:10:47.596Z,4.90
2018-11-29T11:13:18.228Z,4.80
2018-11-29T11:15:47.318Z,4.90
2018-11-29T11:18:15.991Z,5.20
2018-11-29T11:20:44.316Z,5.70
2018-11-29T11:23:12.095Z,5.50
2018-11-29T11:25:41.069Z,5.40
2018-11-29T11:28:10.508Z,5.80
2018-11-29T11:30:43.448Z,6.30
2018-11-29T11:33:11.944Z,6.50
2018-11-29T11:35:41.378Z,7.20
2018-11-29T11:38:11.093Z,7.80
2018-11-29T11:40:38.857Z,7.80
2018-11-29T11:43:07.224Z,8.20
2018-11-29T11:45:34.935Z,8.50
2018-11-29T11:48:03.449Z,8.80
2018-11-29T11:50:34.488Z,9.40
2018-11-29T11:53:02.186Z,10.00
2018-11-29T11:55:30.514Z,10.10
2018-11-29T11:58:01.981Z,11.10
2018-11-29T12:00:30.594Z,11.60
2018-11-29T12:03:16.259Z,11.40
2018-11-29T12:05:43.927Z,11.00
2018-11-29T12:08:12.510Z,10.50
2018-11-29T12:10:42.007Z,10.40
2018-11-29T12:13:09.663Z,10.50
2018-11-29T12:15:38.357Z,10.00
2018-11-29T12:18:09.118Z,9.60
2018-11-29T12:20:36.836Z,9.50
2018-11-29T12:23:06.100Z,9.30
2018-11-29T12:25:34.245Z,8.40
2018-11-29T12:28:01.961Z,8.30
2018-11-29T12:30:34.192Z,7.50
2018-11-29T12:33:04.920Z,7.00
2018-11-29T12:35:33.727Z,6.60
2018-11-29T12:38:01.699Z,7.10
2018-11-29T12:40:29.366Z,7.40
2018-11-29T12:42:57.063Z,7.70
2018-11-29T12:45:24.828Z,8.00
2018-11-29T12:47:52.635Z,7.60
2018-11-29T12:50:24.081Z,8.30
2018-11-29T12:52:51.875Z,8.10
2018-11-29T12:55:26.826Z,7.90
2018-11-29T12:58:05.398Z,8.20
2018-11-29T13:00:25.135Z,7.60
2018-11-29T13:02:57.202Z,8.10
2018-11-29T13:05:25.924Z,7.80
2018-11-29T13:07:53.790Z,8.70
2018-11-29T13:10:24.104Z,8.70
2018-11-29T13:12:52.231Z,8.90
2018-11-29T13:15:23.619Z,9.00
2018-11-29T13:17:51.334Z,9.80
2018-11-29T13:20:19.787Z,9.80
2018-11-29T13:22:48.162Z,9.40
2018-11-29T13:25:18.217Z,9.70
2018-11-29T13:27:46.079Z,9.00
2018-11-29T13:30:19.661Z,8.70
2018-11-29T13:32:49.950Z,8.30
2018-11-29T13:35:23.035Z,8.80
2018-11-29T13:37:54.344Z,8.90
2018-11-29T13:40:23.054Z,7.80
2018-11-29T13:42:51.510Z,7.30
2018-11-29T13:45:19.626Z,6.00
2018-11-29T13:47:47.776Z,5.50
2018-11-29T13:50:17.271Z,5.40
2018-11-29T13:52:46.798Z,5.00
2018-11-29T13:55:15.575Z,4.50
2018-11-29T13:57:46.395Z,4.20
2018-11-29T14:00:20.465Z,4.10
2018-11-29T14:02:51.076Z,3.90
2018-11-29T14:05:18.792Z,3.80
2018-11-29T14:07:48.788Z,3.50
2018-11-29T14:10:20.586Z,3.50
2018-11-29T14:12:50.107Z,3.40
2018-11-29T14:15:23.469Z,3.30
2018-11-29T14:17:51.209Z,3.10
2018-11-29T14:20:19.566Z,3.10
2018-11-29T14:22:47.279Z,3.10
2018-11-29T14:25:17.925Z,3.00
2018-11-29T14:27:48.564Z,3.00
2018-11-29T14:30:18.966Z,2.90
2018-11-29T14:32:47.085Z,2.80
2018-11-29T14:35:14.771Z,2.60
2018-11-29T14:37:42.519Z,2.60
2018-11-29T14:40:15.773Z,2.50
2018-11-29T14:42:44.265Z,2.50
2018-11-29T14:45:15.626Z,2.30
2018-11-29T14:47:43.247Z,2.30
2018-11-29T14:50:35.391Z,2.20
2018-11-29T14:53:03.089Z,2.10
2018-11-29T14:55:31.847Z,2.00
2018-11-29T14:57:59.624Z,1.90
2018-11-29T15:00:27.326Z,1.90
2018-11-29T15:02:56.166Z,1.90
2018-11-29T15:05:27.706Z,1.80
2018-11-29T15:07:55.593Z,1.80
2018-11-29T15:10:23.953Z,1.80
2018-11-29T15:12:54.661Z,1.80
2018-11-29T15:15:22.354Z,1.70
2018-11-29T15:17:51.834Z,1.70
2018-11-29T15:20:27.257Z,1.70
2018-11-29T15:22:55.014Z,1.70
2018-11-29T15:25:22.700Z,1.70
2018-11-29T15:27:50.424Z,1.70
2018-11-29T15:30:20.600Z,1.70
2018-11-29T15:32:47.920Z,1.70
2018-11-29T15:35:17.304Z,1.60
2018-11-29T15:37:46.994Z,1.60
2018-11-29T15:40:16.817Z,1.70
2018-11-29T15:42:44.818Z,1.60
2018-11-29T15:45:23.495Z,1.60
2018-11-29T15:47:51.585Z,1.60
2018-11-29T15:50:19.519Z,1.60
2018-11-29T15:52:47.531Z,1.60
2018-11-29T15:55:16.614Z,1.60
2018-11-29T15:57:46.176Z,1.50
2018-11-29T16:00:17.247Z,1.60
2018-11-29T16:02:47.155Z,1.60
2018-11-29T16:05:14.784Z,1.60
2018-11-29T16:07:42.647Z,1.60
2018-11-29T16:10:15.502Z,1.60
2018-11-29T16:12:44.111Z,1.60
2018-11-29T16:15:14.122Z,1.60
2018-11-29T16:17:42.996Z,1.60
2018-11-29T16:20:18.825Z,1.60
2018-11-29T16:22:46.725Z,1.60
2018-11-29T16:25:15.271Z,1.60
2018-11-29T16:27:43.867Z,1.60
2018-11-29T16:30:23.963Z,1.60
2018-11-29T16:32:54.002Z,1.60
2018-11-29T16:35:22.488Z,1.60
2018-11-29T16:37:50.299Z,1.60
2018-11-29T16:40:19.510Z,1.60
2018-11-29T16:42:47.262Z,1.60
2018-11-29T16:45:15.972Z,1.70
2018-11-29T16:47:43.700Z,1.70
2018-11-29T16:50:15.056Z,1.70
2018-11-29T16:52:43.850Z,1.70
2018-11-29T16:55:12.245Z,1.70
2018-11-29T16:57:43.693Z,1.70
2018-11-29T17:00:18.352Z,1.70
2018-11-29T17:02:47.763Z,1.70
2018-11-29T17:05:17.525Z,1.70
2018-11-29T17:07:45.367Z,1.70
2018-11-29T17:10:21.901Z,1.70
2018-11-29T17:12:52.691Z,1.70
2018-11-29T17:15:20.610Z,1.70
2018-11-29T17:17:48.560Z,1.70
2018-11-29T17:20:19.424Z,1.70
2018-11-29T17:22:48.899Z,1.70
2018-11-29T17:25:16.858Z,1.70
2018-11-29T17:27:49.150Z,1.70
2018-11-29T17:30:22.200Z,1.70
2018-11-29T17:32:53.257Z,1.70
2018-11-29T17:35:21.797Z,1.80
2018-11-29T17:37:50.625Z,1.70
2018-11-29T17:40:23.375Z,1.70
2018-11-29T17:42:53.588Z,1.70
2018-11-29T17:45:24.738Z,1.70
2018-11-29T17:47:58.530Z,1.80
2018-11-29T17:50:43.725Z,1.70
2018-11-29T17:53:16.304Z,1.70
2018-11-29T17:55:44.917Z,1.70
2018-11-29T17:58:15.631Z,1.70
2018-11-29T18:00:47.939Z,1.70
2018-11-29T18:03:19.662Z,1.70
2018-11-29T18:05:48.251Z,1.70
2018-11-29T18:08:16.748Z,1.60
2018-11-29T18:10:47.035Z,1.70
2018-11-29T18:13:19.896Z,1.70
2018-11-29T18:15:49.484Z,1.70
2018-11-29T18:18:19.000Z,1.70
2018-11-29T18:20:48.530Z,1.60
2018-11-29T18:23:17.146Z,1.60
2018-11-29T18:25:44.938Z,1.60
2018-11-29T18:28:13.765Z,1.60
2018-11-29T18:30:42.842Z,1.60
2018-11-29T18:33:10.653Z,1.50
2018-11-29T18:35:38.662Z,1.50
2018-11-29T18:38:08.946Z,1.50
2018-11-29T18:40:36.752Z,1.50
2018-11-29T18:43:07.790Z,1.50
2018-11-29T18:45:36.202Z,1.40
2018-11-29T18:48:07.179Z,1.40
2018-11-29T18:50:34.988Z,1.50
2018-11-29T18:53:02.969Z,1.50
2018-11-29T18:55:30.680Z,1.40
2018-11-29T18:57:59.046Z,1.40
2018-11-29T19:00:33.364Z,1.40
2018-11-29T19:03:01.184Z,1.40
2018-11-29T19:05:28.894Z,1.30
2018-11-29T19:07:56.740Z,1.30
2018-11-29T19:10:24.543Z,1.30
2018-11-29T19:13:23.239Z,1.30
2018-11-29T19:15:51.321Z,1.30
2018-11-29T19:18:19.060Z,1.20
2018-11-29T19:20:47.408Z,1.20
2018-11-29T19:23:15.095Z,1.20
2018-11-29T19:25:42.827Z,1.20
2018-11-29T19:28:10.544Z,1.20
2018-11-29T19:30:39.149Z,1.20
2018-11-29T19:33:18.657Z,1.20
2018-11-29T19:35:54.213Z,1.10
2018-11-29T19:38:22.235Z,1.10
2018-11-29T19:40:50.001Z,1.20
2018-11-29T19:43:17.807Z,1.10
2018-11-29T19:45:45.615Z,1.10
2018-11-29T19:48:13.808Z,1.10
2018-11-29T19:50:41.785Z,1.10
2018-11-29T19:53:15.033Z,1.10
2018-11-29T19:55:42.832Z,1.00
2018-11-29T19:58:10.493Z,0.90
2018-11-29T20:00:38.734Z,1.00
2018-11-29T20:03:06.983Z,1.00
2018-11-29T20:05:34.715Z,1.00
2018-11-29T20:08:02.560Z,1.00
2018-11-29T20:10:30.296Z,1.00
2018-11-29T20:13:03.768Z,0.90
2018-11-29T20:15:31.522Z,0.90
2018-11-29T20:17:59.393Z,0.90
2018-11-29T20:20:27.267Z,0.90
2018-11-29T20:22:55.111Z,0.90
2018-11-29T20:25:24.598Z,0.90
2018-11-29T20:27:52.335Z,0.90
2018-11-29T20:30:21.631Z,0.90
2018-11-29T20:32:51.348Z,0.80
2018-11-29T20:35:19.369Z,0.80
2018-11-29T20:37:48.388Z,0.80
2018-11-29T20:40:24.911Z,0.80
2018-11-29T20:42:54.637Z,0.80
2018-11-29T20:45:24.817Z,0.90
2018-11-29T20:47:52.609Z,0.90
2018-11-29T20:50:22.391Z,0.80
2018-11-29T20:52:51.982Z,0.80
2018-11-29T20:55:26.870Z,0.70
2018-11-29T20:57:54.689Z,0.80
2018-11-29T21:00:22.530Z,0.70
2018-11-29T21:02:50.358Z,0.60
2018-11-29T21:05:19.658Z,0.70
2018-11-29T21:07:50.782Z,0.60
2018-11-29T21:10:22.826Z,0.60
2018-11-29T21:12:50.538Z,0.60
2018-11-29T21:15:18.426Z,0.60
2018-11-29T21:17:46.126Z,0.60
2018-11-29T21:20:15.725Z,0.50
2018-11-29T21:22:45.345Z,0.50
2018-11-29T21:25:15.502Z,0.50
2018-11-29T21:27:43.186Z,0.50
2018-11-29T21:30:15.003Z,0.50
2018-11-29T21:32:43.125Z,0.50
2018-11-29T21:35:13.478Z,0.50
2018-11-29T21:37:41.654Z,0.40
2018-11-29T21:40:19.741Z,0.50
2018-11-29T21:42:47.515Z,0.50
2018-11-29T21:45:15.392Z,0.40
2018-11-29T21:47:43.085Z,0.40
2018-11-29T21:50:10.741Z,0.40
2018-11-29T21:52:38.486Z,0.40
2018-11-29T21:55:07.195Z,0.40
2018-11-29T21:57:34.901Z,0.50
2018-11-29T22:00:07.449Z,0.50
2018-11-29T22:02:35.113Z,0.50
2018-11-29T22:05:02.942Z,0.40
2018-11-29T22:07:30.589Z,0.40
2018-11-29T22:09:58.264Z,0.40
2018-11-29T22:12:26.056Z,0.40
2018-11-29T22:14:53.703Z,0.40
2018-11-29T22:17:21.414Z,0.40
2018-11-29T22:19:49.132Z,0.30
2018-11-29T22:22:16.864Z,0.30
2018-11-29T22:24:44.555Z,0.40
2018-11-29T22:27:12.239Z,0.30
2018-11-29T22:29:39.881Z,0.30
2018-11-29T22:32:07.591Z,0.40
2018-11-29T22:34:35.840Z,0.40
2018-11-29T22:37:03.640Z,0.30
2018-11-29T22:39:31.331Z,0.40
2018-11-29T22:41:58.999Z,0.40
2018-11-29T22:44:26.672Z,0.40
2018-11-29T22:46:54.345Z,0.40
2018-11-29T22:49:22.014Z,0.40
2018-11-29T22:51:49.722Z,0.40
2018-11-29T22:54:17.387Z,0.40
2018-11-29T22:56:45.121Z,0.40
2018-11-29T22:59:12.775Z,0.40
2018-11-29T23:01:40.518Z,0.40
2018-11-29T23:04:08.188Z,0.30
2018-11-29T23:06:36.049Z,0.30
2018-11-29T23:09:06.804Z,0.40
2018-11-29T23:11:34.534Z,0.30
2018-11-29T23:14:02.236Z,0.40
2018-11-29T23:16:29.973Z,0.40
2018-11-29T23:18:57.634Z,0.40
2018-11-29T23:21:25.291Z,0.40
2018-11-29T23:23:52.989Z,0.30
2018-11-29T23:26:20.698Z,0.30
2018-11-29T23:28:48.406Z,0.30
2018-11-29T23:31:16.061Z,0.30
2018-11-29T23:33:43.749Z,0.30
2018-11-29T23:36:11.485Z,0.30
2018-11-29T23:38:39.150Z,0.30
2018-11-29T23:41:06.962Z,0.30
2018-11-29T23:43:34.609Z,0.30
2018-11-29T23:46:02.251Z,0.20
2018-11-29T23:48:29.918Z,0.20
2018-11-29T23:50:57.613Z,0.20
2018-11-29T23:53:25.283Z,0.20
2018-11-29T23:55:53.021Z,0.20
2018-11-29T23:58:20.726Z,0.20
